Latest Coastal Weather Observations for Maningrida Airport

IDD60701

Issued at 5:01 pm CST Saturday 29 April 2017 (issued every 10 minutes, with the page automatically refreshed every 10 minutes)

About coastal observations | Map of coastal stations | Coastal observations for NT | Marine services | Other Formats
Station Details ID: 014405 Name: MANINGRIDA AIRPORT Lat: -12.06 Lon: 134.23 Height: 28.1 m
Data from the previous 72 hours. | See also: Recent months at Maningrida Airport
Date/Time
CST
Temp
°C
Wind Pressure Rain since
9am
mm
Weather Cloud Vis
km
Sea
Height
m
Swell
Dir  Spd
kts
Gust
kts
hPa Trend Height
m
Period
s
Dir
29/05:00pm 29.5 SE 8 11 1011.1 - 0.0 - - 10 - - - -
29/04:30pm 30.0 SE 6 9 1010.9 - 0.0 - - 10 - - - -
29/04:00pm 30.2 E 7 9 1010.8 - 0.0 - Partly cloudy 10 - - - -
29/03:30pm 30.5 ENE 7 11 1010.7 - 0.0 - Partly cloudy 10 - - - -
29/03:00pm 30.3 SE 8 12 1010.9 - 0.0 - Mostly clear 10 - - - -
29/02:30pm 30.7 E 7 13 1010.9 - 0.0 - - 10 - - - -
29/02:00pm 30.3 E 8 13 1011.2 - 0.0 - - 10 - - - -
29/01:30pm 30.5 SE 9 15 1011.5 - 0.0 - - 10 - - - -
29/01:00pm 30.3 SE 9 14 1012.0 - 0.0 - - 10 - - - -
29/12:30pm 29.6 SE 9 14 1012.4 - 0.0 - - 10 - - - -
29/12:00pm 29.4 E 9 13 1013.0 - 0.0 - - 10 - - - -
29/11:30am 29.0 ESE 10 16 1013.2 - 0.0 - - 10 - - - -
29/11:00am 28.4 SE 12 17 1013.6 - 0.0 - - 10 - - - -
29/10:30am 27.7 SE 12 19 1013.6 - 0.0 - - 10 - - - -
29/10:00am 26.8 SE 13 18 1013.7 - 0.0 - - 10 - - - -
29/09:30am 26.2 SE 11 14 1013.5 - 0.0 - - 10 - - - -
29/09:00am 25.4 SE 10 13 1013.3 - 0.0 - - 10 - - - -
29/08:30am 24.5 SE 10 13 1013.1 - 0.0 - - 10 - - - -
29/08:00am 23.4 SE 9 12 1013.1 - 0.0 - - 10 - - - -
29/07:30am 21.7 SSE 5 7 1012.9 - 0.0 - - 10 - - - -
29/07:00am 20.2 SSW 4 5 1012.6 - 0.0 - - 10 - - - -
29/06:30am 20.6 SSW 3 5 1012.3 - 0.0 - - 10 - - - -
29/06:00am 20.8 SSE 5 7 1012.0 - 0.0 - - 10 - - - -
29/05:30am 21.1 SSE 5 8 1012.0 - 0.0 - - 10 - - - -
29/05:00am 21.2 SSE 5 6 1012.1 - 0.0 - - 10 - - - -
29/04:30am 21.7 SSE 6 7 1012.0 - 0.0 - - 10 - - - -
29/04:00am 22.4 SSE 7 10 1011.6 - 0.0 - - 10 - - - -
29/03:30am 22.7 SSE 9 11 1011.5 - 0.0 - - 10 - - - -
29/03:00am 23.1 SSE 9 13 1011.7 - 0.0 - Cloudy 10 - - - -
29/02:30am 23.1 SSE 8 13 1012.0 - 0.0 - - 10 - - - -
29/02:00am 23.2 S 9 13 1012.3 - 0.0 - - 10 - - - -
29/01:30am 23.6 S 8 12 1012.7 - 0.0 - - 10 - - - -
29/01:00am 24.0 SSE 11 15 1012.8 - 0.0 - - 10 - - - -
29/12:30am 24.2 SSE 10 15 1012.9 - 0.0 - - 10 - - - -
29/12:00am 24.5 SSE 8 14 1013.0 - 0.0 - Mostly cloudy 10 - - - -
 
Date/Time
CST
Temp
°C
Wind Pressure Rain since
9am
mm
Weather Cloud Vis
km
Sea
Height
m
Swell
Dir  Spd
kts
Gust
kts
hPa Trend Height
m
Period
s
Dir
28/11:30pm 24.8 SSE 10 17 1012.9 - 0.0 - - 10 - - - -
28/11:00pm 25.0 SSE 9 13 1013.1 - 0.0 - - 10 - - - -
28/10:30pm 25.1 SSE 9 13 1013.3 - 0.0 - - 10 - - - -
28/10:00pm 25.9 SE 9 13 1013.3 - 0.0 - - 10 - - - -
28/09:30pm 26.3 SE 10 15 1013.2 - 0.0 - - 10 - - - -
28/09:00pm 26.3 SE 9 11 1013.1 - 0.0 - - 10 - - - -
28/08:30pm 26.6 SE 8 10 1012.9 - 0.0 - - 10 - - - -
28/08:00pm 25.6 SE 6 8 1012.6 - 0.0 - - 10 - - - -
28/07:30pm 25.9 SSE 5 6 1012.3 - 0.0 - Partly cloudy 10 - - - -
28/07:00pm 26.6 SE 4 4 1011.9 - 0.0 - - 10 - - - -
28/06:30pm 27.5 SE 5 7 1011.3 - 0.0 - - 10 - - - -
28/06:00pm 28.5 ESE 6 8 1011.0 - 0.0 - Partly cloudy 10 - - - -
28/05:30pm 29.4 SE 8 11 1010.6 - 0.0 - Partly cloudy 10 - - - -
28/05:00pm 30.4 SE 7 10 1010.2 - 0.0 - Partly cloudy 10 - - - -
28/04:30pm 30.7 ESE 7 10 1010.1 - 0.0 - Partly cloudy 10 - - - -
28/04:00pm 30.6 SE 8 10 1010.1 - 0.0 - Partly cloudy 10 - - - -
28/03:30pm 30.1 ESE 8 12 1010.1 - 0.0 - Partly cloudy 10 - - - -
28/03:00pm 30.9 ESE 9 15 1010.3 - 0.0 - Partly cloudy 10 - - - -
28/02:30pm 31.3 E 9 12 1010.4 - 0.0 - Partly cloudy 10 - - - -
28/02:00pm 31.1 ESE 10 16 1010.8 - 0.0 - Partly cloudy 10 - - - -
28/01:30pm 30.8 ESE 11 18 1011.2 - 0.0 - Partly cloudy 10 - - - -
28/01:00pm 30.6 SE 10 15 1011.7 - 0.0 - Partly cloudy 10 - - - -
28/12:30pm 29.9 ESE 13 20 1012.3 - 0.0 - Partly cloudy 10 - - - -
28/12:00pm 30.1 SE 11 17 1012.7 - 0.0 - - 10 - - - -
28/11:30am 29.5 SE 13 18 1012.9 - 0.0 - - 10 - - - -
28/11:00am 29.2 SE 15 23 1013.1 - 0.0 - - 10 - - - -
28/10:30am 28.4 SE 13 19 1013.3 - 0.0 - - 10 - - - -
28/10:00am 28.0 SSE 10 15 1013.5 - 0.0 - Partly cloudy 10 - - - -
28/09:30am 27.1 SSE 10 15 1013.5 - 0.0 - Cloudy 10 - - - -
28/09:00am 25.8 SSE 6 10 1013.6 - 1.6 - Cloudy 10 - - - -
28/08:30am 24.6 S 7 10 1013.5 - 1.6 - Cloudy 10 - - - -
28/08:00am 24.1 SSE 8 11 1013.2 - 1.6 - Cloudy 10 - - - -
28/07:30am 24.0 SSE 6 9 1012.6 - 1.6 - Cloudy 10 - - - -
28/07:00am 23.9 SSE 6 8 1012.3 - 1.6 - Cloudy 10 - - - -
28/06:30am 23.8 SSE 7 9 1012.0 - 1.6 - Cloudy 10 - - - -
28/06:00am 23.6 SE 6 9 1011.7 - 1.6 - Cloudy 10 - - - -
28/05:30am 23.4 SSE 5 8 1011.6 - 1.6 - Cloudy 10 - - - -
28/05:00am 23.3 SE 6 9 1011.1 - 1.6 - Partly cloudy 10 - - - -
28/04:30am 23.4 SE 7 11 1010.9 - 1.6 - - 10 - - - -
28/04:00am 23.8 ESE 7 11 1010.7 - 1.6 - - 10 - - - -
28/03:30am 24.0 SE 8 12 1010.7 - 1.6 - - 10 - - - -
28/03:00am 24.1 SE 9 13 1010.6 - 1.6 - - 10 - - - -
28/02:30am 24.1 SE 11 16 1010.6 - 1.6 - - 10 - - - -
28/02:00am 24.0 SSE 10 13 1010.8 - 1.6 - - 10 - - - -
28/01:30am 24.0 SE 9 12 1011.2 - 1.6 - - 10 - - - -
28/01:00am 23.7 SE 7 8 1011.5 - 1.6 - Partly cloudy 10 - - - -
28/12:30am 24.0 SSE 6 10 1011.9 - 1.6 - - 10 - - - -
28/12:00am 24.2 SSE 7 10 1012.0 - 1.6 - Mostly clear 10 - - - -
 
Date/Time
CST
Temp
°C
Wind Pressure Rain since
9am
mm
Weather Cloud Vis
km
Sea
Height
m
Swell
Dir  Spd
kts
Gust
kts
hPa Trend Height
m
Period
s
Dir
27/11:30pm 24.3 SSE 7 11 1012.2 - 1.6 - - 10 - - - -
27/11:00pm 24.3 SSE 7 9 1012.6 - 1.6 - - 10 - - - -
27/10:30pm 24.2 SSE 5 7 1012.9 - 1.6 - - 10 - - - -
27/10:00pm 24.2 SSE 3 4 1013.3 - 1.6 - - 10 - - - -
27/09:30pm 24.1 SSE 4 5 1013.1 - 1.4 - Partly cloudy 10 - - - -
27/09:00pm 24.3 SSE 5 8 1013.0 - 1.4 - Partly cloudy 10 - - - -
27/08:30pm 24.4 SE 9 13 1012.4 - 1.4 - Partly cloudy 10 - - - -
27/08:00pm 24.5 SE 9 13 1011.9 - 1.4 - Partly cloudy 10 - - - -
27/07:48pm 24.6 SE 10 14 1011.9 - 1.4 - Partly cloudy 10 - - - -
27/07:30pm 24.9 SE 9 15 1011.9 - 1.4 - Partly cloudy 5 - - - -
27/07:00pm 25.7 SE 6 7 1011.4 - 1.0 - Partly cloudy 10 - - - -
27/06:30pm 25.9 SSE 7 9 1010.7 - 1.0 - - 10 - - - -
27/06:00pm 26.6 ESE 6 9 1010.3 - 1.0 - Mostly cloudy 10 - - - -
27/05:30pm 26.7 E 8 11 1010.2 - 1.0 - Partly cloudy 10 - - - -
27/05:00pm 27.1 ESE 6 10 1009.8 - 1.0 - Partly cloudy 10 - - - -
27/04:30pm 27.6 E 11 15 1009.2 - 1.0 - Partly cloudy 10 - - - -
27/04:00pm 28.7 E 5 7 1009.0 - 1.0 - Partly cloudy 10 - - - -
27/03:30pm 28.3 ENE 5 7 1008.8 - 1.0 - Partly cloudy 10 - - - -
27/03:00pm 28.2 E 7 11 1008.9 - 1.0 - Mostly clear 10 - - - -
27/02:30pm 28.6 E 8 12 1009.3 - 1.0 - Partly cloudy 10 - - - -
27/02:00pm 28.3 E 9 14 1009.3 - 1.0 - - 10 - - - -
27/01:39pm 27.3 E 10 13 1009.8 - 1.0 - Partly cloudy 10 - - - -
27/01:30pm 27.1 E 11 19 1010.0 - 1.0 - Partly cloudy 6 - - - -
27/01:27pm 26.8 E 12 19 1010.0 - 1.0 - Partly cloudy 5 - - - -
27/01:00pm 29.5 ESE 10 15 1010.1 - 0.2 - Partly cloudy 10 - - - -
27/12:30pm 28.3 ESE 9 12 1010.9 - 0.2 - - 10 - - - -
27/12:00pm 27.5 ESE 11 16 1011.3 - 0.2 Drizzle Mostly clear 10 - - - -
27/11:30am 26.9 SE 10 14 1011.8 - 0.2 - Partly cloudy 10 - - - -
27/11:00am 25.9 SE 9 14 1011.9 - 0.2 - Partly cloudy 10 - - - -
27/10:30am 25.4 ESE 9 13 1012.0 - 0.2 - Partly cloudy 10 - - - -
27/10:00am 25.4 SE 10 14 1012.5 - 0.0 - Partly cloudy 10 - - - -
27/09:30am 25.7 ESE 8 11 1012.9 - 0.0 - Partly cloudy 10 - - - -
27/09:00am 25.6 ESE 9 13 1012.6 - 21.0 - Mostly cloudy 10 - - - -
27/08:30am 25.3 SE 11 15 1011.7 - 21.0 - Partly cloudy 10 - - - -
27/08:00am 24.9 SE 9 13 1011.6 - 21.0 - - 10 - - - -
27/07:30am 23.0 SE 6 7 1011.5 - 21.0 - - 10 - - - -
27/07:00am 22.5 SE 5 7 1011.4 - 21.0 - Partly cloudy 10 - - - -
27/06:30am 22.4 SSE 4 6 1011.2 - 21.0 - Partly cloudy 10 - - - -
27/06:00am 22.4 SSE 6 8 1010.7 - 21.0 - Mostly clear 10 - - - -
27/05:30am 22.5 SSE 6 8 1010.1 - 21.0 - - 10 - - - -
27/05:00am 22.5 SSE 7 9 1009.9 - 21.0 - - 10 - - - -
27/04:30am 22.6 SSE 9 12 1009.3 - 21.0 - - 10 - - - -
27/04:00am 22.3 SSE 9 12 1009.0 - 21.0 - - 10 - - - -
27/03:30am 22.3 SSE 7 10 1008.9 - 21.0 - - 10 - - - -
27/03:00am 22.3 SSE 6 8 1009.3 - 21.0 - Mostly clear 10 - - - -
27/02:30am 22.5 SE 6 8 1009.4 - 21.0 - - 10 - - - -
27/02:00am 22.7 SE 9 12 1009.4 - 21.0 - - 10 - - - -
27/01:30am 22.7 SE 9 13 1010.0 - 21.0 - - 10 - - - -
27/01:00am 22.6 SE 9 12 1010.5 - 21.0 - - 10 - - - -
27/12:30am 22.5 ESE 10 13 1010.6 - 21.0 - - 10 - - - -
27/12:00am 22.5 ESE 10 14 1011.1 - 21.0 - Cloudy 10 - - - -
 
Date/Time
CST
Temp
°C
Wind Pressure Rain since
9am
mm
Weather Cloud Vis
km
Sea
Height
m
Swell
Dir  Spd
kts
Gust
kts
hPa Trend Height
m
Period
s
Dir
26/11:30pm 22.4 ESE 9 13 1011.3 - 21.0 - - 10 - - - -
26/11:00pm 22.1 SE 9 13 1011.4 - 21.0 - - 10 - - - -
26/10:30pm 21.8 SE 10 13 1011.6 - 21.0 - - 10 - - - -
26/10:00pm 21.8 SE 8 13 1011.7 - 21.0 - - 10 - - - -
26/09:30pm 21.6 SE 9 13 1011.5 - 21.0 - - 10 - - - -
26/09:00pm 21.1 SSE 11 16 1011.0 - 21.0 - Cloudy 10 - - - -
26/08:30pm 20.7 SSE 11 15 1011.4 - 21.0 - - 10 - - - -
26/08:00pm 21.2 SE 12 16 1011.8 - 21.0 - Partly cloudy 10 - - - -
26/07:30pm 21.8 SE 9 13 1012.0 - 20.0 - Partly cloudy 8 - - - -
26/07:00pm 22.6 SSE 11 15 1011.2 - 17.8 - Partly cloudy 10 - - - -
26/06:30pm 23.1 SE 15 23 1010.7 - 17.8 - Partly cloudy 10 - - - -
26/06:00pm 23.8 SE 13 18 1010.3 - 17.8 Rain Mostly cloudy 10 - - - -
26/05:59pm 23.7 SE 13 18 1010.3 - 17.8 - Partly cloudy 10 - - - -
26/05:42pm 24.0 SSE 15 22 1010.2 - 17.8 - Partly cloudy 5 - - - -
26/05:30pm 24.4 SSE 13 18 1010.0 - 17.8 - Partly cloudy 10 - - - -

Other Formats:

Comma delimited format used in spreadsheet applications
http://www.bom.gov.au/fwo/IDD60701/IDD60701.95142.axf

JavaScript Object Notation format (JSON) in row-major order
http://www.bom.gov.au/fwo/IDD60701/IDD60701.95142.json